sensor_id;sensor_type;location;lat;lon;timestamp;P1;durP1;ratioP1;P2;durP2;ratioP2
76512;SDS011;65345;0.000;0.000;2023-03-05T00:00:28;12.07;;;6.32;;
76512;SDS011;65345;0.000;0.000;2023-03-05T00:01:09;10.87;;;6.37;;
76512;SDS011;65345;0.000;0.000;2023-03-05T00:01:40;11.95;;;6.35;;
76512;SDS011;65345;0.000;0.000;2023-03-05T00:02:10;10.55;;;6.00;;
76512;SDS011;65345;0.000;0.000;2023-03-05T00:02:42;10.80;;;6.07;;
76512;SDS011;65345;0.000;0.000;2023-03-05T00:03:12;11.70;;;6.72;;
76512;SDS011;65345;0.000;0.000;2023-03-05T00:03:43;10.53;;;6.30;;
76512;SDS011;65345;0.000;0.000;2023-03-05T00:04:13;11.40;;;6.30;;
76512;SDS011;65345;0.000;0.000;2023-03-05T00:04:44;10.73;;;6.23;;
76512;SDS011;65345;0.000;0.000;2023-03-05T00:05:14;12.23;;;6.50;;
76512;SDS011;65345;0.000;0.000;2023-03-05T00:05:44;11.23;;;6.27;;
76512;SDS011;65345;0.000;0.000;2023-03-05T00:06:14;10.17;;;5.97;;
76512;SDS011;65345;0.000;0.000;2023-03-05T00:06:46;11.45;;;6.57;;
76512;SDS011;65345;0.000;0.000;2023-03-05T00:07:16;10.77;;;6.20;;
76512;SDS011;65345;0.000;0.000;2023-03-05T00:07:46;9.30;;;6.00;;
76512;SDS011;65345;0.000;0.000;2023-03-05T00:08:17;11.90;;;6.40;;
76512;SDS011;65345;0.000;0.000;2023-03-05T00:08:48;11.13;;;6.10;;
76512;SDS011;65345;0.000;0.000;2023-03-05T00:09:18;11.40;;;6.30;;
76512;SDS011;65345;0.000;0.000;2023-03-05T00:09:49;11.53;;;6.40;;
76512;SDS011;65345;0.000;0.000;2023-03-05T00:10:19;10.30;;;6.07;;
76512;SDS011;65345;0.000;0.000;2023-03-05T00:10:56;10.65;;;6.18;;
76512;SDS011;65345;0.000;0.000;2023-03-05T00:11:27;11.43;;;6.88;;
76512;SDS011;65345;0.000;0.000;2023-03-05T00:11:58;10.82;;;6.28;;
76512;SDS011;65345;0.000;0.000;2023-03-05T00:12:29;11.77;;;6.77;;
76512;SDS011;65345;0.000;0.000;2023-03-05T00:12:59;10.90;;;6.38;;
76512;SDS011;65345;0.000;0.000;2023-03-05T00:13:29;10.43;;;6.23;;
76512;SDS011;65345;0.000;0.000;2023-03-05T00:14:00;10.75;;;6.25;;
76512;SDS011;65345;0.000;0.000;2023-03-05T00:14:32;10.25;;;6.30;;
76512;SDS011;65345;0.000;0.000;2023-03-05T00:15:02;10.83;;;6.40;;
76512;SDS011;65345;0.000;0.000;2023-03-05T00:15:33;11.30;;;6.47;;
76512;SDS011;65345;0.000;0.000;2023-03-05T00:16:10;10.95;;;6.53;;
76512;SDS011;65345;0.000;0.000;2023-03-05T00:16:40;10.45;;;6.28;;
76512;SDS011;65345;0.000;0.000;2023-03-05T00:17:11;12.03;;;6.83;;
76512;SDS011;65345;0.000;0.000;2023-03-05T00:17:41;11.53;;;6.40;;
76512;SDS011;65345;0.000;0.000;2023-03-05T00:18:11;11.27;;;6.32;;
76512;SDS011;65345;0.000;0.000;2023-03-05T00:18:41;12.10;;;6.80;;
76512;SDS011;65345;0.000;0.000;2023-03-05T00:19:12;10.43;;;6.50;;
76512;SDS011;65345;0.000;0.000;2023-03-05T00:19:42;12.17;;;6.30;;
76512;SDS011;65345;0.000;0.000;2023-03-05T00:20:12;10.70;;;6.13;;
76512;SDS011;65345;0.000;0.000;2023-03-05T00:20:43;11.38;;;6.40;;
76512;SDS011;65345;0.000;0.000;2023-03-05T00:21:23;10.77;;;6.47;;
76512;SDS011;65345;0.000;0.000;2023-03-05T00:21:54;11.15;;;6.57;;
76512;SDS011;65345;0.000;0.000;2023-03-05T00:22:24;10.80;;;6.50;;
76512;SDS011;65345;0.000;0.000;2023-03-05T00:22:55;9.98;;;5.95;;
76512;SDS011;65345;0.000;0.000;2023-03-05T00:23:25;12.20;;;6.43;;
76512;SDS011;65345;0.000;0.000;2023-03-05T00:23:56;12.27;;;6.55;;
76512;SDS011;65345;0.000;0.000;2023-03-05T00:24:26;11.35;;;6.40;;
76512;SDS011;65345;0.000;0.000;2023-03-05T00:24:57;10.90;;;6.60;;
76512;SDS011;65345;0.000;0.000;2023-03-05T00:25:27;11.88;;;6.50;;
76512;SDS011;65345;0.000;0.000;2023-03-05T00:26:00;10.80;;;6.40;;
76512;SDS011;65345;0.000;0.000;2023-03-05T00:26:30;11.07;;;6.65;;
76512;SDS011;65345;0.000;0.000;2023-03-05T00:27:03;10.27;;;6.03;;
76512;SDS011;65345;0.000;0.000;2023-03-05T00:27:33;10.53;;;5.90;;
76512;SDS011;65345;0.000;0.000;2023-03-05T00:28:04;11.87;;;6.43;;
76512;SDS011;65345;0.000;0.000;2023-03-05T00:28:34;13.57;;;6.30;;
76512;SDS011;65345;0.000;0.000;2023-03-05T00:29:05;11.33;;;6.40;;
76512;SDS011;65345;0.000;0.000;2023-03-05T00:29:35;10.20;;;6.03;;
76512;SDS011;65345;0.000;0.000;2023-03-05T00:30:06;10.98;;;6.10;;
76512;SDS011;65345;0.000;0.000;2023-03-05T00:30:36;12.63;;;6.60;;
76512;SDS011;65345;0.000;0.000;2023-03-05T00:31:06;11.63;;;6.00;;
76512;SDS011;65345;0.000;0.000;2023-03-05T00:31:37;10.63;;;5.83;;
76512;SDS011;65345;0.000;0.000;2023-03-05T00:32:07;11.35;;;6.00;;
76512;SDS011;65345;0.000;0.000;2023-03-05T00:32:37;10.70;;;6.30;;
76512;SDS011;65345;0.000;0.000;2023-03-05T00:33:08;10.40;;;6.03;;
76512;SDS011;65345;0.000;0.000;2023-03-05T00:33:40;11.70;;;6.32;;
76512;SDS011;65345;0.000;0.000;2023-03-05T00:34:13;10.83;;;5.97;;
76512;SDS011;65345;0.000;0.000;2023-03-05T00:34:44;10.45;;;6.07;;
76512;SDS011;65345;0.000;0.000;2023-03-05T00:35:14;11.90;;;6.53;;
76512;SDS011;65345;0.000;0.000;2023-03-05T00:35:45;10.27;;;6.10;;
76512;SDS011;65345;0.000;0.000;2023-03-05T00:36:15;9.27;;;6.05;;
76512;SDS011;65345;0.000;0.000;2023-03-05T00:36:49;11.63;;;6.30;;
76512;SDS011;65345;0.000;0.000;2023-03-05T00:37:19;10.97;;;6.20;;
76512;SDS011;65345;0.000;0.000;2023-03-05T00:37:50;11.03;;;6.10;;
76512;SDS011;65345;0.000;0.000;2023-03-05T00:38:20;10.20;;;5.87;;
76512;SDS011;65345;0.000;0.000;2023-03-05T00:38:50;10.20;;;5.85;;
76512;SDS011;65345;0.000;0.000;2023-03-05T00:39:21;10.27;;;5.67;;
76512;SDS011;65345;0.000;0.000;2023-03-05T00:39:51;11.02;;;5.90;;
76512;SDS011;65345;0.000;0.000;2023-03-05T00:40:21;10.23;;;6.13;;
76512;SDS011;65345;0.000;0.000;2023-03-05T00:40:52;10.93;;;6.53;;
76512;SDS011;65345;0.000;0.000;2023-03-05T00:41:22;10.27;;;6.18;;
76512;SDS011;65345;0.000;0.000;2023-03-05T00:41:52;10.53;;;5.90;;
76512;SDS011;65345;0.000;0.000;2023-03-05T00:42:22;8.70;;;5.37;;
76512;SDS011;65345;0.000;0.000;2023-03-05T00:42:53;9.15;;;5.65;;
76512;SDS011;65345;0.000;0.000;2023-03-05T00:43:23;12.37;;;6.53;;
76512;SDS011;65345;0.000;0.000;2023-03-05T00:43:53;11.20;;;6.20;;
76512;SDS011;65345;0.000;0.000;2023-03-05T00:44:24;11.77;;;6.18;;
76512;SDS011;65345;0.000;0.000;2023-03-05T00:44:54;11.13;;;6.30;;
76512;SDS011;65345;0.000;0.000;2023-03-05T00:45:24;11.10;;;6.43;;
76512;SDS011;65345;0.000;0.000;2023-03-05T00:45:55;10.13;;;6.17;;
76512;SDS011;65345;0.000;0.000;2023-03-05T00:46:25;11.13;;;5.97;;
76512;SDS011;65345;0.000;0.000;2023-03-05T00:46:56;10.32;;;6.05;;
76512;SDS011;65345;0.000;0.000;2023-03-05T00:47:26;9.70;;;5.83;;
76512;SDS011;65345;0.000;0.000;2023-03-05T00:47:57;10.85;;;5.97;;
76512;SDS011;65345;0.000;0.000;2023-03-05T00:48:27;10.80;;;6.40;;
76512;SDS011;65345;0.000;0.000;2023-03-05T00:48:58;10.97;;;6.30;;
76512;SDS011;65345;0.000;0.000;2023-03-05T00:49:28;10.15;;;6.00;;
76512;SDS011;65345;0.000;0.000;2023-03-05T00:49:58;10.80;;;5.77;;
76512;SDS011;65345;0.000;0.000;2023-03-05T00:50:29;12.10;;;6.40;;
76512;SDS011;65345;0.000;0.000;2023-03-05T00:50:59;10.03;;;5.80;;
76512;SDS011;65345;0.000;0.000;2023-03-05T00:51:29;11.90;;;5.97;;
76512;SDS011;65345;0.000;0.000;2023-03-05T00:51:59;9.90;;;6.13;;
76512;SDS011;65345;0.000;0.000;2023-03-05T00:52:30;10.27;;;5.67;;
76512;SDS011;65345;0.000;0.000;2023-03-05T00:53:00;10.87;;;6.17;;
76512;SDS011;65345;0.000;0.000;2023-03-05T00:53:30;10.40;;;6.00;;
76512;SDS011;65345;0.000;0.000;2023-03-05T00:54:01;11.00;;;6.20;;
76512;SDS011;65345;0.000;0.000;2023-03-05T00:54:31;10.45;;;6.00;;
76512;SDS011;65345;0.000;0.000;2023-03-05T00:55:01;11.47;;;6.60;;
76512;SDS011;65345;0.000;0.000;2023-03-05T00:55:32;9.80;;;5.93;;
76512;SDS011;65345;0.000;0.000;2023-03-05T00:56:02;10.20;;;5.90;;
76512;SDS011;65345;0.000;0.000;2023-03-05T00:56:32;9.77;;;5.83;;
76512;SDS011;65345;0.000;0.000;2023-03-05T00:57:03;11.07;;;6.37;;
76512;SDS011;65345;0.000;0.000;2023-03-05T00:57:34;11.38;;;6.10;;
76512;SDS011;65345;0.000;0.000;2023-03-05T00:58:04;9.95;;;6.03;;
76512;SDS011;65345;0.000;0.000;2023-03-05T00:58:35;9.53;;;5.70;;
76512;SDS011;65345;0.000;0.000;2023-03-05T00:59:05;9.57;;;5.80;;
76512;SDS011;65345;0.000;0.000;2023-03-05T00:59:35;10.43;;;6.03;;
76512;SDS011;65345;0.000;0.000;2023-03-05T01:00:06;10.43;;;6.07;;
76512;SDS011;65345;0.000;0.000;2023-03-05T01:00:36;10.70;;;6.05;;
76512;SDS011;65345;0.000;0.000;2023-03-05T01:01:07;11.27;;;6.20;;
76512;SDS011;65345;0.000;0.000;2023-03-05T01:01:38;10.97;;;6.30;;
76512;SDS011;65345;0.000;0.000;2023-03-05T01:02:09;9.57;;;5.85;;
76512;SDS011;65345;0.000;0.000;2023-03-05T01:02:39;10.65;;;6.13;;
76512;SDS011;65345;0.000;0.000;2023-03-05T01:03:10;10.57;;;5.87;;
76512;SDS011;65345;0.000;0.000;2023-03-05T01:03:40;10.07;;;5.80;;
76512;SDS011;65345;0.000;0.000;2023-03-05T01:04:11;10.30;;;5.93;;
76512;SDS011;65345;0.000;0.000;2023-03-05T01:04:41;11.90;;;6.20;;
76512;SDS011;65345;0.000;0.000;2023-03-05T01:05:14;10.90;;;6.45;;
76512;SDS011;65345;0.000;0.000;2023-03-05T01:05:45;11.18;;;6.00;;
76512;SDS011;65345;0.000;0.000;2023-03-05T01:06:16;10.53;;;5.97;;
76512;SDS011;65345;0.000;0.000;2023-03-05T01:06:46;10.73;;;6.00;;
76512;SDS011;65345;0.000;0.000;2023-03-05T01:07:17;10.60;;;6.07;;
76512;SDS011;65345;0.000;0.000;2023-03-05T01:07:47;11.23;;;6.20;;
76512;SDS011;65345;0.000;0.000;2023-03-05T01:08:20;9.93;;;5.80;;
76512;SDS011;65345;0.000;0.000;2023-03-05T01:08:51;11.10;;;6.47;;
76512;SDS011;65345;0.000;0.000;2023-03-05T01:09:21;11.35;;;6.18;;
76512;SDS011;65345;0.000;0.000;2023-03-05T01:09:54;10.70;;;5.90;;
76512;SDS011;65345;0.000;0.000;2023-03-05T01:10:24;11.35;;;6.32;;
76512;SDS011;65345;0.000;0.000;2023-03-05T01:10:58;9.63;;;5.93;;
76512;SDS011;65345;0.000;0.000;2023-03-05T01:11:28;11.43;;;6.20;;
76512;SDS011;65345;0.000;0.000;2023-03-05T01:11:58;10.23;;;5.70;;
76512;SDS011;65345;0.000;0.000;2023-03-05T01:12:29;11.10;;;6.00;;
76512;SDS011;65345;0.000;0.000;2023-03-05T01:12:59;10.43;;;5.93;;
76512;SDS011;65345;0.000;0.000;2023-03-05T01:13:30;10.57;;;6.18;;
76512;SDS011;65345;0.000;0.000;2023-03-05T01:14:00;10.40;;;6.17;;
76512;SDS011;65345;0.000;0.000;2023-03-05T01:14:30;10.50;;;6.45;;
76512;SDS011;65345;0.000;0.000;2023-03-05T01:15:01;11.20;;;6.00;;
76512;SDS011;65345;0.000;0.000;2023-03-05T01:15:32;10.18;;;6.25;;
76512;SDS011;65345;0.000;0.000;2023-03-05T01:16:03;10.30;;;5.70;;
76512;SDS011;65345;0.000;0.000;2023-03-05T01:16:33;10.93;;;6.03;;
76512;SDS011;65345;0.000;0.000;2023-03-05T01:17:03;10.87;;;5.83;;
76512;SDS011;65345;0.000;0.000;2023-03-05T01:17:34;10.30;;;6.17;;
76512;SDS011;65345;0.000;0.000;2023-03-05T01:18:04;10.15;;;5.82;;
76512;SDS011;65345;0.000;0.000;2023-03-05T01:18:35;11.50;;;6.20;;
76512;SDS011;65345;0.000;0.000;2023-03-05T01:19:06;9.88;;;5.80;;
76512;SDS011;65345;0.000;0.000;2023-03-05T01:19:36;11.03;;;5.87;;
76512;SDS011;65345;0.000;0.000;2023-03-05T01:20:06;10.80;;;6.00;;
76512;SDS011;65345;0.000;0.000;2023-03-05T01:20:37;10.82;;;5.78;;
76512;SDS011;65345;0.000;0.000;2023-03-05T01:21:07;10.37;;;6.20;;
76512;SDS011;65345;0.000;0.000;2023-03-05T01:21:38;11.52;;;5.93;;
76512;SDS011;65345;0.000;0.000;2023-03-05T01:22:08;11.10;;;6.07;;
76512;SDS011;65345;0.000;0.000;2023-03-05T01:22:38;9.53;;;5.60;;
76512;SDS011;65345;0.000;0.000;2023-03-05T01:23:09;10.57;;;5.70;;
76512;SDS011;65345;0.000;0.000;2023-03-05T01:23:39;10.93;;;6.40;;
76512;SDS011;65345;0.000;0.000;2023-03-05T01:24:09;11.48;;;6.20;;
76512;SDS011;65345;0.000;0.000;2023-03-05T01:24:39;12.27;;;6.33;;
76512;SDS011;65345;0.000;0.000;2023-03-05T01:25:11;11.33;;;6.10;;
76512;SDS011;65345;0.000;0.000;2023-03-05T01:25:41;9.60;;;5.78;;
76512;SDS011;65345;0.000;0.000;2023-03-05T01:26:12;9.97;;;5.80;;
76512;SDS011;65345;0.000;0.000;2023-03-05T01:26:42;11.20;;;5.87;;
76512;SDS011;65345;0.000;0.000;2023-03-05T01:27:13;10.07;;;5.88;;
76512;SDS011;65345;0.000;0.000;2023-03-05T01:27:44;9.93;;;5.87;;
76512;SDS011;65345;0.000;0.000;2023-03-05T01:28:14;11.25;;;6.05;;
76512;SDS011;65345;0.000;0.000;2023-03-05T01:28:44;12.30;;;6.00;;
76512;SDS011;65345;0.000;0.000;2023-03-05T01:29:14;11.50;;;5.80;;
76512;SDS011;65345;0.000;0.000;2023-03-05T01:29:45;9.73;;;5.87;;
76512;SDS011;65345;0.000;0.000;2023-03-05T01:30:15;9.87;;;5.90;;
76512;SDS011;65345;0.000;0.000;2023-03-05T01:30:45;11.50;;;6.00;;
76512;SDS011;65345;0.000;0.000;2023-03-05T01:31:16;10.37;;;5.90;;
76512;SDS011;65345;0.000;0.000;2023-03-05T01:31:46;10.13;;;5.83;;
76512;SDS011;65345;0.000;0.000;2023-03-05T01:32:16;11.02;;;6.10;;
76512;SDS011;65345;0.000;0.000;2023-03-05T01:32:46;11.17;;;6.30;;
76512;SDS011;65345;0.000;0.000;2023-03-05T01:33:17;10.87;;;5.97;;
76512;SDS011;65345;0.000;0.000;2023-03-05T01:33:47;11.02;;;5.65;;
76512;SDS011;65345;0.000;0.000;2023-03-05T01:34:20;10.07;;;5.68;;
76512;SDS011;65345;0.000;0.000;2023-03-05T01:34:50;9.50;;;5.50;;
76512;SDS011;65345;0.000;0.000;2023-03-05T01:35:21;10.63;;;5.60;;
76512;SDS011;65345;0.000;0.000;2023-03-05T01:35:51;11.57;;;5.95;;
76512;SDS011;65345;0.000;0.000;2023-03-05T01:36:22;10.97;;;5.90;;
76512;SDS011;65345;0.000;0.000;2023-03-05T01:36:54;11.85;;;6.28;;
76512;SDS011;65345;0.000;0.000;2023-03-05T01:37:24;9.70;;;5.77;;
76512;SDS011;65345;0.000;0.000;2023-03-05T01:37:54;10.67;;;6.00;;
76512;SDS011;65345;0.000;0.000;2023-03-05T01:38:25;10.77;;;5.75;;
76512;SDS011;65345;0.000;0.000;2023-03-05T01:38:55;10.13;;;5.70;;
76512;SDS011;65345;0.000;0.000;2023-03-05T01:39:25;10.38;;;6.00;;
76512;SDS011;65345;0.000;0.000;2023-03-05T01:39:56;10.30;;;5.80;;
76512;SDS011;65345;0.000;0.000;2023-03-05T01:40:27;9.38;;;5.40;;
76512;SDS011;65345;0.000;0.000;2023-03-05T01:40:57;9.35;;;5.78;;
76512;SDS011;65345;0.000;0.000;2023-03-05T01:41:27;9.83;;;5.70;;
76512;SDS011;65345;0.000;0.000;2023-03-05T01:41:58;8.60;;;5.50;;
76512;SDS011;65345;0.000;0.000;2023-03-05T01:42:28;9.33;;;5.77;;
76512;SDS011;65345;0.000;0.000;2023-03-05T01:42:59;10.67;;;5.67;;
76512;SDS011;65345;0.000;0.000;2023-03-05T01:43:30;10.38;;;5.80;;
76512;SDS011;65345;0.000;0.000;2023-03-05T01:44:00;10.83;;;5.77;;
76512;SDS011;65345;0.000;0.000;2023-03-05T01:44:31;9.73;;;5.60;;
76512;SDS011;65345;0.000;0.000;2023-03-05T01:46:13;10.25;;;5.68;;
76512;SDS011;65345;0.000;0.000;2023-03-05T01:46:33;10.63;;;5.88;;
76512;SDS011;65345;0.000;0.000;2023-03-05T01:47:03;10.05;;;5.57;;
76512;SDS011;65345;0.000;0.000;2023-03-05T01:47:34;9.80;;;5.93;;
76512;SDS011;65345;0.000;0.000;2023-03-05T01:48:04;10.18;;;5.30;;
76512;SDS011;65345;0.000;0.000;2023-03-05T01:48:34;10.30;;;5.90;;
76512;SDS011;65345;0.000;0.000;2023-03-05T01:49:22;10.23;;;5.53;;
76512;SDS011;65345;0.000;0.000;2023-03-05T01:49:53;9.68;;;5.60;;
76512;SDS011;65345;0.000;0.000;2023-03-05T01:50:24;8.70;;;5.22;;
76512;SDS011;65345;0.000;0.000;2023-03-05T01:50:55;9.98;;;5.65;;
76512;SDS011;65345;0.000;0.000;2023-03-05T01:51:26;10.07;;;5.70;;
76512;SDS011;65345;0.000;0.000;2023-03-05T01:52:03;9.77;;;5.53;;
76512;SDS011;65345;0.000;0.000;2023-03-05T01:52:34;9.23;;;5.45;;
76512;SDS011;65345;0.000;0.000;2023-03-05T01:53:05;9.43;;;5.50;;
76512;SDS011;65345;0.000;0.000;2023-03-05T01:53:36;10.23;;;5.80;;
76512;SDS011;65345;0.000;0.000;2023-03-05T01:54:06;10.25;;;5.88;;
76512;SDS011;65345;0.000;0.000;2023-03-05T01:54:39;9.20;;;5.72;;
76512;SDS011;65345;0.000;0.000;2023-03-05T01:55:14;10.52;;;5.78;;
76512;SDS011;65345;0.000;0.000;2023-03-05T01:55:45;9.57;;;5.55;;
76512;SDS011;65345;0.000;0.000;2023-03-05T01:56:15;10.25;;;5.85;;
76512;SDS011;65345;0.000;0.000;2023-03-05T01:56:46;9.77;;;5.57;;
76512;SDS011;65345;0.000;0.000;2023-03-05T01:57:22;10.10;;;5.60;;
76512;SDS011;65345;0.000;0.000;2023-03-05T01:57:58;9.40;;;5.30;;
76512;SDS011;65345;0.000;0.000;2023-03-05T01:58:29;9.80;;;5.55;;
76512;SDS011;65345;0.000;0.000;2023-03-05T01:59:00;10.02;;;5.88;;
76512;SDS011;65345;0.000;0.000;2023-03-05T01:59:34;11.00;;;5.97;;
76512;SDS011;65345;0.000;0.000;2023-03-05T02:00:45;9.75;;;5.63;;
76512;SDS011;65345;0.000;0.000;2023-03-05T02:01:17;8.75;;;5.38;;
76512;SDS011;65345;0.000;0.000;2023-03-05T02:01:48;11.13;;;5.77;;
76512;SDS011;65345;0.000;0.000;2023-03-05T02:02:19;8.18;;;4.90;;
76512;SDS011;65345;0.000;0.000;2023-03-05T02:02:51;10.68;;;5.50;;
76512;SDS011;65345;0.000;0.000;2023-03-05T02:03:21;11.27;;;5.72;;
76512;SDS011;65345;0.000;0.000;2023-03-05T02:03:52;10.53;;;5.57;;
76512;SDS011;65345;0.000;0.000;2023-03-05T02:04:23;8.60;;;5.20;;
76512;SDS011;65345;0.000;0.000;2023-03-05T02:05:09;10.73;;;5.97;;
76512;SDS011;65345;0.000;0.000;2023-03-05T02:05:40;10.80;;;5.70;;
76512;SDS011;65345;0.000;0.000;2023-03-05T02:06:13;9.23;;;5.28;;
76512;SDS011;65345;0.000;0.000;2023-03-05T02:06:43;9.97;;;5.17;;
76512;SDS011;65345;0.000;0.000;2023-03-05T02:07:14;9.15;;;5.10;;
76512;SDS011;65345;0.000;0.000;2023-03-05T02:07:44;10.45;;;5.60;;
76512;SDS011;65345;0.000;0.000;2023-03-05T02:08:17;8.77;;;5.40;;
76512;SDS011;65345;0.000;0.000;2023-03-05T02:08:47;9.85;;;5.60;;
76512;SDS011;65345;0.000;0.000;2023-03-05T02:09:18;9.63;;;5.40;;
76512;SDS011;65345;0.000;0.000;2023-03-05T02:09:52;9.77;;;5.40;;
76512;SDS011;65345;0.000;0.000;2023-03-05T02:10:24;9.35;;;5.13;;
76512;SDS011;65345;0.000;0.000;2023-03-05T02:10:55;12.02;;;5.78;;
76512;SDS011;65345;0.000;0.000;2023-03-05T02:11:25;9.32;;;5.50;;
76512;SDS011;65345;0.000;0.000;2023-03-05T02:11:56;9.83;;;5.60;;
76512;SDS011;65345;0.000;0.000;2023-03-05T02:12:26;10.30;;;6.03;;
76512;SDS011;65345;0.000;0.000;2023-03-05T02:12:57;9.30;;;5.43;;
76512;SDS011;65345;0.000;0.000;2023-03-05T02:13:30;9.27;;;5.47;;
76512;SDS011;65345;0.000;0.000;2023-03-05T02:14:01;9.88;;;5.50;;
76512;SDS011;65345;0.000;0.000;2023-03-05T02:14:31;9.70;;;5.40;;
76512;SDS011;65345;0.000;0.000;2023-03-05T02:15:02;8.90;;;5.50;;
76512;SDS011;65345;0.000;0.000;2023-03-05T02:15:33;9.40;;;5.30;;
76512;SDS011;65345;0.000;0.000;2023-03-05T02:16:03;9.07;;;5.20;;
76512;SDS011;65345;0.000;0.000;2023-03-05T02:16:34;9.85;;;5.82;;
76512;SDS011;65345;0.000;0.000;2023-03-05T02:17:06;9.88;;;5.80;;
76512;SDS011;65345;0.000;0.000;2023-03-05T02:17:36;8.95;;;5.47;;
76512;SDS011;65345;0.000;0.000;2023-03-05T02:18:07;8.63;;;5.20;;
76512;SDS011;65345;0.000;0.000;2023-03-05T02:18:37;9.25;;;5.47;;
76512;SDS011;65345;0.000;0.000;2023-03-05T02:19:08;9.00;;;5.40;;
76512;SDS011;65345;0.000;0.000;2023-03-05T02:19:46;9.70;;;5.18;;
76512;SDS011;65345;0.000;0.000;2023-03-05T02:20:18;9.27;;;5.10;;
76512;SDS011;65345;0.000;0.000;2023-03-05T02:21:26;11.02;;;5.53;;
76512;SDS011;65345;0.000;0.000;2023-03-05T02:21:57;10.02;;;5.68;;
76512;SDS011;65345;0.000;0.000;2023-03-05T02:22:27;9.85;;;5.60;;
76512;SDS011;65345;0.000;0.000;2023-03-05T02:22:58;9.43;;;5.33;;
76512;SDS011;65345;0.000;0.000;2023-03-05T02:23:29;10.97;;;5.33;;
76512;SDS011;65345;0.000;0.000;2023-03-05T02:24:01;9.20;;;5.50;;
76512;SDS011;65345;0.000;0.000;2023-03-05T02:24:35;8.77;;;5.33;;
76512;SDS011;65345;0.000;0.000;2023-03-05T02:25:38;10.77;;;5.60;;
76512;SDS011;65345;0.000;0.000;2023-03-05T02:26:03;9.68;;;5.70;;
76512;SDS011;65345;0.000;0.000;2023-03-05T02:26:33;9.43;;;5.60;;
76512;SDS011;65345;0.000;0.000;2023-03-05T02:27:04;9.57;;;5.70;;
76512;SDS011;65345;0.000;0.000;2023-03-05T02:27:34;10.35;;;5.32;;
76512;SDS011;65345;0.000;0.000;2023-03-05T02:28:07;11.40;;;5.63;;
76512;SDS011;65345;0.000;0.000;2023-03-05T02:28:45;10.80;;;5.60;;
76512;SDS011;65345;0.000;0.000;2023-03-05T02:29:17;9.88;;;5.57;;
76512;SDS011;65345;0.000;0.000;2023-03-05T02:29:48;9.60;;;5.60;;
76512;SDS011;65345;0.000;0.000;2023-03-05T02:30:20;9.55;;;5.60;;
76512;SDS011;65345;0.000;0.000;2023-03-05T02:30:50;10.63;;;5.60;;
76512;SDS011;65345;0.000;0.000;2023-03-05T02:31:22;8.93;;;5.53;;
76512;SDS011;65345;0.000;0.000;2023-03-05T02:31:53;9.18;;;5.60;;
76512;SDS011;65345;0.000;0.000;2023-03-05T02:32:23;9.90;;;5.60;;
76512;SDS011;65345;0.000;0.000;2023-03-05T02:32:54;8.87;;;5.33;;
76512;SDS011;65345;0.000;0.000;2023-03-05T02:33:24;10.70;;;5.43;;
76512;SDS011;65345;0.000;0.000;2023-03-05T02:33:54;10.10;;;5.90;;
76512;SDS011;65345;0.000;0.000;2023-03-05T02:34:25;9.98;;;5.38;;
76512;SDS011;65345;0.000;0.000;2023-03-05T02:34:55;8.70;;;5.20;;
76512;SDS011;65345;0.000;0.000;2023-03-05T02:35:25;9.73;;;5.23;;
76512;SDS011;65345;0.000;0.000;2023-03-05T02:35:56;9.88;;;5.55;;
76512;SDS011;65345;0.000;0.000;2023-03-05T02:36:26;9.93;;;5.57;;
76512;SDS011;65345;0.000;0.000;2023-03-05T02:36:56;10.70;;;5.37;;
76512;SDS011;65345;0.000;0.000;2023-03-05T02:37:26;10.32;;;5.30;;
76512;SDS011;65345;0.000;0.000;2023-03-05T02:37:57;9.87;;;5.13;;
76512;SDS011;65345;0.000;0.000;2023-03-05T02:38:27;10.60;;;5.40;;
76512;SDS011;65345;0.000;0.000;2023-03-05T02:38:57;9.23;;;5.25;;
76512;SDS011;65345;0.000;0.000;2023-03-05T02:39:28;9.00;;;5.40;;
76512;SDS011;65345;0.000;0.000;2023-03-05T02:39:58;9.37;;;5.50;;
76512;SDS011;65345;0.000;0.000;2023-03-05T02:40:28;9.50;;;5.33;;
76512;SDS011;65345;0.000;0.000;2023-03-05T02:40:58;9.20;;;5.53;;
76512;SDS011;65345;0.000;0.000;2023-03-05T02:41:29;9.73;;;5.45;;
76512;SDS011;65345;0.000;0.000;2023-03-05T02:41:59;9.47;;;5.50;;
76512;SDS011;65345;0.000;0.000;2023-03-05T02:42:30;9.75;;;5.50;;
76512;SDS011;65345;0.000;0.000;2023-03-05T02:43:02;9.82;;;5.45;;
76512;SDS011;65345;0.000;0.000;2023-03-05T02:43:32;9.23;;;5.30;;
76512;SDS011;65345;0.000;0.000;2023-03-05T02:44:03;9.30;;;5.20;;
76512;SDS011;65345;0.000;0.000;2023-03-05T02:44:33;9.20;;;5.37;;
76512;SDS011;65345;0.000;0.000;2023-03-05T02:45:04;8.65;;;5.10;;
76512;SDS011;65345;0.000;0.000;2023-03-05T02:45:34;9.50;;;5.20;;
76512;SDS011;65345;0.000;0.000;2023-03-05T02:46:05;9.07;;;5.10;;
76512;SDS011;65345;0.000;0.000;2023-03-05T02:46:35;8.88;;;5.10;;
76512;SDS011;65345;0.000;0.000;2023-03-05T02:47:06;10.40;;;5.37;;
76512;SDS011;65345;0.000;0.000;2023-03-05T02:47:36;8.73;;;5.20;;
76512;SDS011;65345;0.000;0.000;2023-03-05T02:48:06;10.02;;;5.35;;
76512;SDS011;65345;0.000;0.000;2023-03-05T02:48:36;10.23;;;5.47;;
76512;SDS011;65345;0.000;0.000;2023-03-05T02:49:07;10.50;;;5.50;;
76512;SDS011;65345;0.000;0.000;2023-03-05T02:49:37;10.50;;;5.13;;
76512;SDS011;65345;0.000;0.000;2023-03-05T02:50:07;8.77;;;5.37;;
76512;SDS011;65345;0.000;0.000;2023-03-05T02:50:39;10.05;;;5.40;;
76512;SDS011;65345;0.000;0.000;2023-03-05T02:51:10;9.35;;;5.05;;
76512;SDS011;65345;0.000;0.000;2023-03-05T02:51:40;9.60;;;5.00;;
76512;SDS011;65345;0.000;0.000;2023-03-05T02:52:10;9.40;;;5.07;;
76512;SDS011;65345;0.000;0.000;2023-03-05T02:52:40;9.50;;;5.32;;
76512;SDS011;65345;0.000;0.000;2023-03-05T02:53:11;9.13;;;5.47;;
76512;SDS011;65345;0.000;0.000;2023-03-05T02:53:41;10.37;;;5.07;;
76512;SDS011;65345;0.000;0.000;2023-03-05T02:54:11;9.10;;;5.27;;
76512;SDS011;65345;0.000;0.000;2023-03-05T02:54:42;10.07;;;5.13;;
76512;SDS011;65345;0.000;0.000;2023-03-05T02:55:12;8.25;;;4.78;;
76512;SDS011;65345;0.000;0.000;2023-03-05T02:55:44;9.30;;;5.40;;
76512;SDS011;65345;0.000;0.000;2023-03-05T02:56:15;9.77;;;5.25;;
76512;SDS011;65345;0.000;0.000;2023-03-05T02:56:45;8.57;;;5.07;;
76512;SDS011;65345;0.000;0.000;2023-03-05T02:57:16;8.93;;;4.87;;
76512;SDS011;65345;0.000;0.000;2023-03-05T02:57:46;9.80;;;5.38;;
76512;SDS011;65345;0.000;0.000;2023-03-05T02:58:16;9.47;;;4.90;;
76512;SDS011;65345;0.000;0.000;2023-03-05T02:58:47;9.20;;;5.00;;
76512;SDS011;65345;0.000;0.000;2023-03-05T02:59:17;9.60;;;5.60;;
76512;SDS011;65345;0.000;0.000;2023-03-05T02:59:47;8.45;;;4.93;;
76512;SDS011;65345;0.000;0.000;2023-03-05T03:00:18;9.40;;;5.23;;
76512;SDS011;65345;0.000;0.000;2023-03-05T03:00:48;9.47;;;5.17;;
76512;SDS011;65345;0.000;0.000;2023-03-05T03:01:18;9.57;;;5.28;;
76512;SDS011;65345;0.000;0.000;2023-03-05T03:01:48;8.93;;;5.30;;
76512;SDS011;65345;0.000;0.000;2023-03-05T03:02:19;9.57;;;5.00;;
76512;SDS011;65345;0.000;0.000;2023-03-05T03:02:49;10.32;;;5.35;;
76512;SDS011;65345;0.000;0.000;2023-03-05T03:03:19;9.23;;;4.90;;
76512;SDS011;65345;0.000;0.000;2023-03-05T03:03:50;9.77;;;5.13;;
76512;SDS011;65345;0.000;0.000;2023-03-05T03:04:20;8.93;;;4.97;;
76512;SDS011;65345;0.000;0.000;2023-03-05T03:04:50;8.60;;;5.27;;
76512;SDS011;65345;0.000;0.000;2023-03-05T03:05:20;8.60;;;5.07;;
76512;SDS011;65345;0.000;0.000;2023-03-05T03:05:51;8.23;;;4.78;;
76512;SDS011;65345;0.000;0.000;2023-03-05T03:06:21;8.97;;;5.10;;
76512;SDS011;65345;0.000;0.000;2023-03-05T03:06:51;9.30;;;5.00;;
76512;SDS011;65345;0.000;0.000;2023-03-05T03:07:22;8.27;;;4.63;;
76512;SDS011;65345;0.000;0.000;2023-03-05T03:07:52;8.80;;;4.70;;
76512;SDS011;65345;0.000;0.000;2023-03-05T03:08:22;8.73;;;4.90;;
76512;SDS011;65345;0.000;0.000;2023-03-05T03:08:52;9.47;;;5.00;;
76512;SDS011;65345;0.000;0.000;2023-03-05T03:09:23;9.17;;;4.70;;
76512;SDS011;65345;0.000;0.000;2023-03-05T03:09:53;8.80;;;5.00;;
76512;SDS011;65345;0.000;0.000;2023-03-05T03:10:23;8.93;;;4.80;;